PCLO2: Pine Creek Lake

Data processed at Wed May 22 2019 23:50


All information presented herein is the property of the government of the United States of America and may be revised or deleted at any time without prior notice.
Dissemination of this information without the expressed written consent of the Public Affairs Office, Tulsa District U.S. Army Corps of Engineers is strictly prohibited.
These data are gathered electronically and, as presented, have not undergone any form of quality control. These data are not guaranteed to be valid or correct.
Go to home page.
Go to station list.
Go to home page.

Upstream stations:

Downstream station:
Previous Day
Next Day
Current Day
    
SHEF ID:       PCLO2     Pine Creek Lake
STATION TYPE:  RESERVOIR
Flood Pool:  Bottom =   438.00, Top =   480.00

               PRECIP  STAGE(2) ELEVATION   STORAGE   TW-ELEV    INFLOW   RELEASE  AIR-TEMP  WIND-DIRWIND-SPEED REL-HUMID SOLAR-RAD   VOLTAGE  BAT-LOAD
                   in        ft        ft     ac-ft        ft       cfs       cfs         F       deg       mph         %      W/m2      volt      volt
              Ccp-Rev   Ccp-Rev   Ccp-Rev   Ccp-Rev   Ccp-Rev  Rev-Regi  Rev-Regi   Ccp-Rev   Ccp-Rev   Ccp-Rev   Ccp-Rev   Ccp-Rev   Ccp-Rev   Ccp-Rev
(US/Central)
05/22 00:00      0.00    457.44    457.25    169360    386.44      2549      2759     59.34    153.40      4.70    100.04      0.00     13.19     12.59
05/22 01:00      0.00    457.45    457.25    169360    386.35      2337      2759     58.75    148.50      4.30    100.04      0.00     13.19     12.48
05/22 02:00      0.00    457.45    457.25    169360    386.35      2548      2759     58.78    140.10      3.50    100.03      0.00     13.19     12.57
05/22 03:00      0.00    457.33    457.24    169273    386.35      2542      2759     58.46    145.90      3.20    100.03      0.00     13.19     12.53
05/22 04:00      0.00    457.32    457.24    169273    386.31      2327      2759     57.92    157.30      2.00    100.03      0.00     13.19     12.58
05/22 05:00      0.00    457.44    457.24    169273    386.35      2320      2759     58.82    122.90      4.60    100.03      0.00     13.19     12.50
05/22 06:00      0.00    457.44    457.23    169186    386.37      2525      2759     60.21    122.60      3.40    100.03      0.00     13.19     12.53
05/22 07:00      0.00    457.37    457.23    169186    386.30      2310      2759     61.65    142.80      2.10    100.03      0.00     13.19     12.50
05/22 08:00      0.01    457.31    457.23    169186    386.33      2310      2759     63.23    140.90      2.10    100.03      1.80     13.16     12.55
05/22 09:00      0.00    457.30    457.22    169098    386.35      2310      2759     66.04    147.00      4.20    100.02     69.00     14.20     12.55
05/22 10:00      0.00    457.29    457.22    169098    386.29      2101      2759     68.81    140.60      5.60    100.01    125.40     14.21     12.54
05/22 11:00      0.00    457.30    457.21    169011    386.34      1556      2759     71.76    149.40      6.20    100.01    186.00     14.18     12.63
05/22 12:00      0.00    457.27    457.20    168924    386.38      1613      2759     75.58    144.20      7.30    100.04    336.80     13.75     12.60
05/22 13:00      0.00    457.29    457.17    168662    386.65      1462      2758     79.11    148.10      7.40     98.84    537.70     13.68     12.53
05/22 14:00      0.00    457.21    457.15    168488    386.85      1519      4104     83.19    159.90     11.50     89.71    662.30     13.66     12.64
05/22 15:00      0.00    457.23    457.13    168314    386.83      1576      4104     85.68    166.70     14.40     77.81    802.20     13.63     12.60
05/22 16:00      0.00    457.18    457.11    168139    386.84      2178      4103     86.29    161.10     15.80     74.11    771.30     13.57     13.02
05/22 17:00      0.00    457.16    457.09    167965    386.84      1969      4102     86.11    160.50     13.10     72.93    617.70     13.56     12.73
05/22 18:00      0.00    457.15    457.08    167878    386.82      1968      4102     85.59    161.30     14.30     71.69    470.60     13.54     12.69
05/22 19:00      0.00    457.18    457.05    167616    386.80      2176      4101     85.08    161.20     12.20     70.77    318.50     13.41     12.61
05/22 20:00      0.00    457.23    457.03    167442    386.74      2391      4100     82.90    158.10      8.10     75.70     96.80     13.18     12.53
05/22 21:00      0.00    457.23    457.02    167354    386.83      2193      4100     79.12    155.10      5.10     86.25      0.00     13.20     12.51
05/22 22:00      0.00    457.19    457.01    167267    386.88      2616      4099     76.82    151.80      3.50     94.07      0.00     13.20     12.48
05/22 23:00      0.00    457.12    456.99    167095    386.93      2421      4099     74.88    153.20      4.80     99.14      0.00     13.20     12.52